sensor_id;sensor_type;location;lat;lon;timestamp;temperature;humidity
7317;DHT22;3699;51.462;6.696;2023-02-01T00:00:17;6.00;99.90
7317;DHT22;3699;51.462;6.696;2023-02-01T00:02:44;6.00;99.90
7317;DHT22;3699;51.462;6.696;2023-02-01T00:05:10;6.10;99.90
7317;DHT22;3699;51.462;6.696;2023-02-01T00:07:37;6.10;99.90
7317;DHT22;3699;51.462;6.696;2023-02-01T00:10:05;6.10;99.90
7317;DHT22;3699;51.462;6.696;2023-02-01T00:12:32;6.20;99.90
7317;DHT22;3699;51.462;6.696;2023-02-01T00:14:59;6.20;99.90
7317;DHT22;3699;51.462;6.696;2023-02-01T00:17:27;6.20;99.90
7317;DHT22;3699;51.462;6.696;2023-02-01T00:19:54;6.30;99.90
7317;DHT22;3699;51.462;6.696;2023-02-01T00:22:21;6.30;99.90
7317;DHT22;3699;51.462;6.696;2023-02-01T00:24:47;7.00;99.90
7317;DHT22;3699;51.462;6.696;2023-02-01T00:27:14;6.30;99.90
7317;DHT22;3699;51.462;6.696;2023-02-01T00:29:43;6.30;99.90
7317;DHT22;3699;51.462;6.696;2023-02-01T00:32:11;6.40;99.90
7317;DHT22;3699;51.462;6.696;2023-02-01T00:34:39;6.40;99.90
7317;DHT22;3699;51.462;6.696;2023-02-01T00:37:05;6.40;99.90
7317;DHT22;3699;51.462;6.696;2023-02-01T00:39:32;6.40;99.90
7317;DHT22;3699;51.462;6.696;2023-02-01T00:42:00;6.40;99.90
7317;DHT22;3699;51.462;6.696;2023-02-01T00:44:27;6.40;99.90
7317;DHT22;3699;51.462;6.696;2023-02-01T00:46:58;6.40;99.90
7317;DHT22;3699;51.462;6.696;2023-02-01T00:49:25;6.40;99.90
7317;DHT22;3699;51.462;6.696;2023-02-01T00:51:53;6.40;99.90
7317;DHT22;3699;51.462;6.696;2023-02-01T00:54:19;6.40;99.90
7317;DHT22;3699;51.462;6.696;2023-02-01T00:56:46;6.40;99.90
7317;DHT22;3699;51.462;6.696;2023-02-01T00:59:13;6.40;99.90
7317;DHT22;3699;51.462;6.696;2023-02-01T01:01:40;6.50;99.90
7317;DHT22;3699;51.462;6.696;2023-02-01T01:04:06;6.50;99.90
7317;DHT22;3699;51.462;6.696;2023-02-01T01:06:34;6.50;99.90
7317;DHT22;3699;51.462;6.696;2023-02-01T01:09:04;6.60;99.90
7317;DHT22;3699;51.462;6.696;2023-02-01T01:11:33;6.60;99.90
7317;DHT22;3699;51.462;6.696;2023-02-01T01:14:01;6.60;99.90
7317;DHT22;3699;51.462;6.696;2023-02-01T01:16:29;6.60;99.90
7317;DHT22;3699;51.462;6.696;2023-02-01T01:18:56;6.60;99.90
7317;DHT22;3699;51.462;6.696;2023-02-01T01:21:24;6.60;99.90
7317;DHT22;3699;51.462;6.696;2023-02-01T01:23:51;6.60;99.90
7317;DHT22;3699;51.462;6.696;2023-02-01T01:26:20;6.70;99.90
7317;DHT22;3699;51.462;6.696;2023-02-01T01:28:48;6.80;99.90
7317;DHT22;3699;51.462;6.696;2023-02-01T01:31:16;6.60;99.90
7317;DHT22;3699;51.462;6.696;2023-02-01T01:33:43;6.60;99.90
7317;DHT22;3699;51.462;6.696;2023-02-01T01:36:11;6.60;99.90
7317;DHT22;3699;51.462;6.696;2023-02-01T01:38:39;6.60;99.90
7317;DHT22;3699;51.462;6.696;2023-02-01T01:41:06;6.60;99.90
7317;DHT22;3699;51.462;6.696;2023-02-01T01:43:51;6.60;99.90
7317;DHT22;3699;51.462;6.696;2023-02-01T01:46:19;6.50;99.90
7317;DHT22;3699;51.462;6.696;2023-02-01T01:48:49;6.50;99.90
7317;DHT22;3699;51.462;6.696;2023-02-01T01:51:20;6.50;99.90
7317;DHT22;3699;51.462;6.696;2023-02-01T01:53:53;6.50;99.90
7317;DHT22;3699;51.462;6.696;2023-02-01T01:56:22;6.50;99.90
7317;DHT22;3699;51.462;6.696;2023-02-01T01:58:52;6.50;99.90
7317;DHT22;3699;51.462;6.696;2023-02-01T02:01:19;6.50;99.90
7317;DHT22;3699;51.462;6.696;2023-02-01T02:03:46;6.50;99.90
7317;DHT22;3699;51.462;6.696;2023-02-01T02:06:19;6.50;99.90
7317;DHT22;3699;51.462;6.696;2023-02-01T02:08:46;6.50;99.90
7317;DHT22;3699;51.462;6.696;2023-02-01T02:11:16;6.40;99.90
7317;DHT22;3699;51.462;6.696;2023-02-01T02:13:46;6.40;99.90
7317;DHT22;3699;51.462;6.696;2023-02-01T02:19:29;6.30;99.90
7317;DHT22;3699;51.462;6.696;2023-02-01T02:25:53;6.20;99.90
7317;DHT22;3699;51.462;6.696;2023-02-01T02:31:52;6.10;99.90
7317;DHT22;3699;51.462;6.696;2023-02-01T02:34:26;6.00;99.90
7317;DHT22;3699;51.462;6.696;2023-02-01T02:37:03;6.00;99.90
7317;DHT22;3699;51.462;6.696;2023-02-01T02:39:39;6.00;99.90
7317;DHT22;3699;51.462;6.696;2023-02-01T02:42:12;5.90;99.90
7317;DHT22;3699;51.462;6.696;2023-02-01T02:45:02;5.90;99.90
7317;DHT22;3699;51.462;6.696;2023-02-01T02:47:54;5.80;99.90
7317;DHT22;3699;51.462;6.696;2023-02-01T02:50:27;5.80;99.90
7317;DHT22;3699;51.462;6.696;2023-02-01T02:53:16;5.70;99.90
7317;DHT22;3699;51.462;6.696;2023-02-01T02:56:03;5.60;99.90
7317;DHT22;3699;51.462;6.696;2023-02-01T02:58:49;5.60;99.90
7317;DHT22;3699;51.462;6.696;2023-02-01T03:01:34;5.50;99.90
7317;DHT22;3699;51.462;6.696;2023-02-01T03:04:19;5.50;99.90
7317;DHT22;3699;51.462;6.696;2023-02-01T03:06:47;5.50;99.90
7317;DHT22;3699;51.462;6.696;2023-02-01T03:09:18;5.50;99.90
7317;DHT22;3699;51.462;6.696;2023-02-01T03:11:49;5.50;99.90
7317;DHT22;3699;51.462;6.696;2023-02-01T03:14:37;5.50;99.90
7317;DHT22;3699;51.462;6.696;2023-02-01T03:17:10;5.50;99.90
7317;DHT22;3699;51.462;6.696;2023-02-01T03:19:40;5.60;99.90
7317;DHT22;3699;51.462;6.696;2023-02-01T03:22:17;5.60;99.90
7317;DHT22;3699;51.462;6.696;2023-02-01T03:24:48;5.70;99.90
7317;DHT22;3699;51.462;6.696;2023-02-01T03:27:20;5.70;99.90
7317;DHT22;3699;51.462;6.696;2023-02-01T03:29:56;5.80;99.90
7317;DHT22;3699;51.462;6.696;2023-02-01T03:32:26;5.80;99.90
7317;DHT22;3699;51.462;6.696;2023-02-01T03:34:52;5.90;99.90
7317;DHT22;3699;51.462;6.696;2023-02-01T03:37:24;5.90;99.90
7317;DHT22;3699;51.462;6.696;2023-02-01T03:39:56;5.90;99.90
7317;DHT22;3699;51.462;6.696;2023-02-01T03:42:30;6.00;99.90
7317;DHT22;3699;51.462;6.696;2023-02-01T03:45:01;6.10;99.90
7317;DHT22;3699;51.462;6.696;2023-02-01T03:47:34;6.10;99.90
7317;DHT22;3699;51.462;6.696;2023-02-01T03:50:05;6.10;99.90
7317;DHT22;3699;51.462;6.696;2023-02-01T03:52:38;6.20;99.90
7317;DHT22;3699;51.462;6.696;2023-02-01T03:55:07;6.20;99.90
7317;DHT22;3699;51.462;6.696;2023-02-01T03:57:38;6.20;99.90
7317;DHT22;3699;51.462;6.696;2023-02-01T04:00:14;6.30;99.90
7317;DHT22;3699;51.462;6.696;2023-02-01T04:02:41;6.30;99.90
7317;DHT22;3699;51.462;6.696;2023-02-01T04:05:08;6.30;99.90
7317;DHT22;3699;51.462;6.696;2023-02-01T04:07:36;6.30;99.90
7317;DHT22;3699;51.462;6.696;2023-02-01T04:10:04;6.30;99.90
7317;DHT22;3699;51.462;6.696;2023-02-01T04:12:30;6.30;99.90
7317;DHT22;3699;51.462;6.696;2023-02-01T04:14:57;6.30;99.90
7317;DHT22;3699;51.462;6.696;2023-02-01T04:17:24;6.30;99.90
7317;DHT22;3699;51.462;6.696;2023-02-01T04:19:51;6.20;99.90
7317;DHT22;3699;51.462;6.696;2023-02-01T04:22:17;6.20;99.90
7317;DHT22;3699;51.462;6.696;2023-02-01T04:24:45;6.10;99.90
7317;DHT22;3699;51.462;6.696;2023-02-01T04:27:12;6.10;99.90
7317;DHT22;3699;51.462;6.696;2023-02-01T04:29:39;6.10;99.90
7317;DHT22;3699;51.462;6.696;2023-02-01T04:32:06;6.10;99.90
7317;DHT22;3699;51.462;6.696;2023-02-01T04:34:33;6.10;99.90
7317;DHT22;3699;51.462;6.696;2023-02-01T04:36:59;6.10;99.90
7317;DHT22;3699;51.462;6.696;2023-02-01T04:39:26;6.10;99.90
7317;DHT22;3699;51.462;6.696;2023-02-01T04:41:54;6.10;99.90
7317;DHT22;3699;51.462;6.696;2023-02-01T04:44:21;6.20;99.90
7317;DHT22;3699;51.462;6.696;2023-02-01T04:46:48;6.20;99.90
7317;DHT22;3699;51.462;6.696;2023-02-01T04:49:15;6.30;99.90
7317;DHT22;3699;51.462;6.696;2023-02-01T04:51:42;6.30;99.90
7317;DHT22;3699;51.462;6.696;2023-02-01T04:54:09;6.30;99.90
7317;DHT22;3699;51.462;6.696;2023-02-01T04:56:37;6.30;99.90
7317;DHT22;3699;51.462;6.696;2023-02-01T04:59:05;6.30;99.90
7317;DHT22;3699;51.462;6.696;2023-02-01T05:01:32;6.20;99.90
7317;DHT22;3699;51.462;6.696;2023-02-01T05:03:59;6.20;99.90
7317;DHT22;3699;51.462;6.696;2023-02-01T05:06:26;6.20;99.90
7317;DHT22;3699;51.462;6.696;2023-02-01T05:08:52;6.20;99.90
7317;DHT22;3699;51.462;6.696;2023-02-01T05:11:19;6.10;99.90
7317;DHT22;3699;51.462;6.696;2023-02-01T05:14:10;6.10;99.90
7317;DHT22;3699;51.462;6.696;2023-02-01T05:16:37;6.00;99.90
7317;DHT22;3699;51.462;6.696;2023-02-01T05:19:03;6.00;99.90
7317;DHT22;3699;51.462;6.696;2023-02-01T05:21:30;6.00;99.90
7317;DHT22;3699;51.462;6.696;2023-02-01T05:23:57;5.90;99.90
7317;DHT22;3699;51.462;6.696;2023-02-01T05:26:35;5.90;99.90
7317;DHT22;3699;51.462;6.696;2023-02-01T05:29:02;5.90;99.90
7317;DHT22;3699;51.462;6.696;2023-02-01T05:31:31;5.90;99.90
7317;DHT22;3699;51.462;6.696;2023-02-01T05:33:57;5.80;99.90
7317;DHT22;3699;51.462;6.696;2023-02-01T05:36:24;5.80;99.90
7317;DHT22;3699;51.462;6.696;2023-02-01T05:38:51;5.80;99.90
7317;DHT22;3699;51.462;6.696;2023-02-01T05:41:18;5.80;99.90
7317;DHT22;3699;51.462;6.696;2023-02-01T05:43:44;5.80;99.90
7317;DHT22;3699;51.462;6.696;2023-02-01T05:46:11;5.80;99.90
7317;DHT22;3699;51.462;6.696;2023-02-01T05:48:39;5.80;99.90
7317;DHT22;3699;51.462;6.696;2023-02-01T05:51:07;5.70;99.90
7317;DHT22;3699;51.462;6.696;2023-02-01T05:53:34;5.70;99.90
7317;DHT22;3699;51.462;6.696;2023-02-01T05:56:00;5.70;99.90
7317;DHT22;3699;51.462;6.696;2023-02-01T05:58:27;5.70;99.90
7317;DHT22;3699;51.462;6.696;2023-02-01T06:00:54;5.70;99.90
7317;DHT22;3699;51.462;6.696;2023-02-01T06:03:21;5.80;99.90
7317;DHT22;3699;51.462;6.696;2023-02-01T06:05:49;5.80;99.90
7317;DHT22;3699;51.462;6.696;2023-02-01T06:08:16;5.90;99.90
7317;DHT22;3699;51.462;6.696;2023-02-01T06:10:42;5.90;99.90
7317;DHT22;3699;51.462;6.696;2023-02-01T06:13:09;5.90;99.90
7317;DHT22;3699;51.462;6.696;2023-02-01T06:15:36;6.00;99.90
7317;DHT22;3699;51.462;6.696;2023-02-01T06:18:04;8.00;99.90
7317;DHT22;3699;51.462;6.696;2023-02-01T06:20:30;6.10;99.90
7317;DHT22;3699;51.462;6.696;2023-02-01T06:22:58;6.10;99.90
7317;DHT22;3699;51.462;6.696;2023-02-01T06:25:25;6.20;99.90
7317;DHT22;3699;51.462;6.696;2023-02-01T06:27:52;6.20;99.90
7317;DHT22;3699;51.462;6.696;2023-02-01T06:30:19;6.30;99.90
7317;DHT22;3699;51.462;6.696;2023-02-01T06:32:50;6.30;99.90
7317;DHT22;3699;51.462;6.696;2023-02-01T06:35:19;6.30;99.90
7317;DHT22;3699;51.462;6.696;2023-02-01T06:37:46;6.40;99.90
7317;DHT22;3699;51.462;6.696;2023-02-01T06:40:14;6.40;99.90
7317;DHT22;3699;51.462;6.696;2023-02-01T06:42:41;6.40;99.90
7317;DHT22;3699;51.462;6.696;2023-02-01T06:45:08;6.40;99.90
7317;DHT22;3699;51.462;6.696;2023-02-01T06:47:35;6.40;99.90
7317;DHT22;3699;51.462;6.696;2023-02-01T06:50:02;6.50;99.90
7317;DHT22;3699;51.462;6.696;2023-02-01T06:52:29;6.50;99.90
7317;DHT22;3699;51.462;6.696;2023-02-01T06:54:56;6.50;99.90
7317;DHT22;3699;51.462;6.696;2023-02-01T06:57:24;6.60;99.90
7317;DHT22;3699;51.462;6.696;2023-02-01T06:59:50;6.60;99.90
7317;DHT22;3699;51.462;6.696;2023-02-01T07:02:17;6.60;99.90
7317;DHT22;3699;51.462;6.696;2023-02-01T07:04:44;6.60;99.90
7317;DHT22;3699;51.462;6.696;2023-02-01T07:07:10;6.60;99.90
7317;DHT22;3699;51.462;6.696;2023-02-01T07:09:37;6.60;99.90
7317;DHT22;3699;51.462;6.696;2023-02-01T07:12:04;6.80;99.90
7317;DHT22;3699;51.462;6.696;2023-02-01T07:14:32;6.60;99.90
7317;DHT22;3699;51.462;6.696;2023-02-01T07:16:59;6.60;99.90
7317;DHT22;3699;51.462;6.696;2023-02-01T07:19:26;6.60;99.90
7317;DHT22;3699;51.462;6.696;2023-02-01T07:21:53;6.60;99.90
7317;DHT22;3699;51.462;6.696;2023-02-01T07:24:19;6.70;99.90
7317;DHT22;3699;51.462;6.696;2023-02-01T07:26:46;6.70;99.90
7317;DHT22;3699;51.462;6.696;2023-02-01T07:29:16;6.70;99.90
7317;DHT22;3699;51.462;6.696;2023-02-01T07:31:44;6.70;99.90
7317;DHT22;3699;51.462;6.696;2023-02-01T07:34:11;6.70;99.90
7317;DHT22;3699;51.462;6.696;2023-02-01T07:36:38;6.80;99.90
7317;DHT22;3699;51.462;6.696;2023-02-01T07:39:04;6.80;99.90
7317;DHT22;3699;51.462;6.696;2023-02-01T07:41:31;6.80;99.90
7317;DHT22;3699;51.462;6.696;2023-02-01T07:43:58;6.80;99.90
7317;DHT22;3699;51.462;6.696;2023-02-01T07:46:25;6.80;99.90
7317;DHT22;3699;51.462;6.696;2023-02-01T07:48:53;6.80;99.90
7317;DHT22;3699;51.462;6.696;2023-02-01T07:51:20;6.80;99.90
7317;DHT22;3699;51.462;6.696;2023-02-01T07:53:47;6.80;99.90
7317;DHT22;3699;51.462;6.696;2023-02-01T07:56:14;6.80;99.90
7317;DHT22;3699;51.462;6.696;2023-02-01T07:58:41;6.80;99.90
7317;DHT22;3699;51.462;6.696;2023-02-01T08:01:14;6.90;99.90
7317;DHT22;3699;51.462;6.696;2023-02-01T08:03:46;7.00;99.90
7317;DHT22;3699;51.462;6.696;2023-02-01T08:06:15;6.90;99.90
7317;DHT22;3699;51.462;6.696;2023-02-01T08:08:41;6.90;99.90
7317;DHT22;3699;51.462;6.696;2023-02-01T08:11:10;6.90;99.90
7317;DHT22;3699;51.462;6.696;2023-02-01T08:13:37;6.90;99.90
7317;DHT22;3699;51.462;6.696;2023-02-01T08:16:05;6.90;99.90
7317;DHT22;3699;51.462;6.696;2023-02-01T08:18:33;6.90;99.90
7317;DHT22;3699;51.462;6.696;2023-02-01T08:21:03;6.90;99.90
7317;DHT22;3699;51.462;6.696;2023-02-01T08:23:32;6.90;99.90
7317;DHT22;3699;51.462;6.696;2023-02-01T08:26:08;7.00;99.90
7317;DHT22;3699;51.462;6.696;2023-02-01T08:28:35;7.00;99.90
7317;DHT22;3699;51.462;6.696;2023-02-01T08:31:07;7.00;99.90
7317;DHT22;3699;51.462;6.696;2023-02-01T08:33:35;7.00;99.90
7317;DHT22;3699;51.462;6.696;2023-02-01T08:36:03;7.10;99.90
7317;DHT22;3699;51.462;6.696;2023-02-01T08:38:32;7.60;99.90
7317;DHT22;3699;51.462;6.696;2023-02-01T08:41:04;7.10;99.90
7317;DHT22;3699;51.462;6.696;2023-02-01T08:43:32;7.10;99.90
7317;DHT22;3699;51.462;6.696;2023-02-01T08:45:58;7.20;99.90
7317;DHT22;3699;51.462;6.696;2023-02-01T08:48:25;7.20;99.90
7317;DHT22;3699;51.462;6.696;2023-02-01T08:50:52;7.30;99.90
7317;DHT22;3699;51.462;6.696;2023-02-01T08:53:18;7.30;99.90
7317;DHT22;3699;51.462;6.696;2023-02-01T08:55:47;7.40;99.90
7317;DHT22;3699;51.462;6.696;2023-02-01T08:58:14;7.50;99.90
7317;DHT22;3699;51.462;6.696;2023-02-01T09:00:42;7.50;99.90
7317;DHT22;3699;51.462;6.696;2023-02-01T09:03:10;7.50;99.90
7317;DHT22;3699;51.462;6.696;2023-02-01T09:05:37;7.60;99.90
7317;DHT22;3699;51.462;6.696;2023-02-01T09:08:04;7.50;99.90
7317;DHT22;3699;51.462;6.696;2023-02-01T09:10:31;7.50;99.90
7317;DHT22;3699;51.462;6.696;2023-02-01T09:12:59;7.50;99.90
7317;DHT22;3699;51.462;6.696;2023-02-01T09:15:26;7.50;99.90
7317;DHT22;3699;51.462;6.696;2023-02-01T09:17:53;7.50;99.90
7317;DHT22;3699;51.462;6.696;2023-02-01T09:20:19;7.50;99.90
7317;DHT22;3699;51.462;6.696;2023-02-01T09:22:49;7.50;99.90
7317;DHT22;3699;51.462;6.696;2023-02-01T09:25:16;7.50;99.90
7317;DHT22;3699;51.462;6.696;2023-02-01T09:27:43;7.50;99.90
7317;DHT22;3699;51.462;6.696;2023-02-01T09:30:12;7.50;99.90
7317;DHT22;3699;51.462;6.696;2023-02-01T09:32:39;7.50;99.90
7317;DHT22;3699;51.462;6.696;2023-02-01T09:35:06;7.60;99.90
7317;DHT22;3699;51.462;6.696;2023-02-01T09:37:33;7.60;99.90
7317;DHT22;3699;51.462;6.696;2023-02-01T09:40:00;7.70;99.90
7317;DHT22;3699;51.462;6.696;2023-02-01T09:42:43;7.70;99.90
7317;DHT22;3699;51.462;6.696;2023-02-01T09:45:22;7.70;99.90
7317;DHT22;3699;51.462;6.696;2023-02-01T09:47:54;7.80;99.90
7317;DHT22;3699;51.462;6.696;2023-02-01T09:50:30;7.80;99.90
7317;DHT22;3699;51.462;6.696;2023-02-01T09:53:02;7.90;99.90
7317;DHT22;3699;51.462;6.696;2023-02-01T09:55:35;8.00;99.90
7317;DHT22;3699;51.462;6.696;2023-02-01T09:58:05;8.10;99.90
7317;DHT22;3699;51.462;6.696;2023-02-01T10:00:36;8.20;99.90
7317;DHT22;3699;51.462;6.696;2023-02-01T10:03:04;8.30;99.90
7317;DHT22;3699;51.462;6.696;2023-02-01T10:05:45;8.50;99.90
7317;DHT22;3699;51.462;6.696;2023-02-01T10:08:20;8.30;99.90
7317;DHT22;3699;51.462;6.696;2023-02-01T10:10:52;8.40;99.90
7317;DHT22;3699;51.462;6.696;2023-02-01T10:13:39;8.50;99.90
7317;DHT22;3699;51.462;6.696;2023-02-01T10:16:22;8.70;99.90
7317;DHT22;3699;51.462;6.696;2023-02-01T10:19:01;8.80;99.90
7317;DHT22;3699;51.462;6.696;2023-02-01T10:21:38;8.80;99.90
7317;DHT22;3699;51.462;6.696;2023-02-01T10:24:20;8.80;99.90
7317;DHT22;3699;51.462;6.696;2023-02-01T10:26:55;8.80;99.90
7317;DHT22;3699;51.462;6.696;2023-02-01T10:29:27;8.80;99.90
7317;DHT22;3699;51.462;6.696;2023-02-01T10:31:55;8.70;99.90
7317;DHT22;3699;51.462;6.696;2023-02-01T10:34:26;8.80;99.90
7317;DHT22;3699;51.462;6.696;2023-02-01T10:36:55;8.60;99.90
7317;DHT22;3699;51.462;6.696;2023-02-01T10:39:22;8.60;99.90
7317;DHT22;3699;51.462;6.696;2023-02-01T10:41:49;8.60;99.90
7317;DHT22;3699;51.462;6.696;2023-02-01T10:44:19;8.60;99.90
7317;DHT22;3699;51.462;6.696;2023-02-01T10:46:47;8.60;99.90
7317;DHT22;3699;51.462;6.696;2023-02-01T10:49:18;8.70;99.90
7317;DHT22;3699;51.462;6.696;2023-02-01T10:51:48;8.70;99.90
7317;DHT22;3699;51.462;6.696;2023-02-01T10:54:18;8.70;99.90
7317;DHT22;3699;51.462;6.696;2023-02-01T10:56:46;8.70;99.90
7317;DHT22;3699;51.462;6.696;2023-02-01T10:59:17;8.80;99.90
7317;DHT22;3699;51.462;6.696;2023-02-01T11:01:45;8.70;99.90
7317;DHT22;3699;51.462;6.696;2023-02-01T11:04:13;8.80;99.90
7317;DHT22;3699;51.462;6.696;2023-02-01T11:06:44;8.90;99.90
7317;DHT22;3699;51.462;6.696;2023-02-01T11:09:18;9.00;99.90
7317;DHT22;3699;51.462;6.696;2023-02-01T11:11:56;9.10;99.90
7317;DHT22;3699;51.462;6.696;2023-02-01T11:14:32;9.20;99.90
7317;DHT22;3699;51.462;6.696;2023-02-01T11:17:01;9.20;99.90
7317;DHT22;3699;51.462;6.696;2023-02-01T11:19:28;9.20;99.90
7317;DHT22;3699;51.462;6.696;2023-02-01T11:21:58;9.10;99.90
7317;DHT22;3699;51.462;6.696;2023-02-01T11:24:27;9.10;99.90
7317;DHT22;3699;51.462;6.696;2023-02-01T11:26:56;9.00;99.90
7317;DHT22;3699;51.462;6.696;2023-02-01T11:29:24;9.00;99.90
7317;DHT22;3699;51.462;6.696;2023-02-01T11:31:56;8.90;99.90
7317;DHT22;3699;51.462;6.696;2023-02-01T11:34:26;8.90;99.90
7317;DHT22;3699;51.462;6.696;2023-02-01T11:36:59;8.90;99.90
7317;DHT22;3699;51.462;6.696;2023-02-01T11:39:30;9.00;99.90
7317;DHT22;3699;51.462;6.696;2023-02-01T11:42:02;9.00;99.90
7317;DHT22;3699;51.462;6.696;2023-02-01T11:44:35;9.00;99.90
7317;DHT22;3699;51.462;6.696;2023-02-01T11:47:22;9.00;99.90
7317;DHT22;3699;51.462;6.696;2023-02-01T11:50:00;8.80;99.90
7317;DHT22;3699;51.462;6.696;2023-02-01T11:52:48;8.90;99.90
7317;DHT22;3699;51.462;6.696;2023-02-01T11:55:33;8.90;99.90
7317;DHT22;3699;51.462;6.696;2023-02-01T11:58:14;8.80;99.90
7317;DHT22;3699;51.462;6.696;2023-02-01T12:01:10;8.70;99.90
7317;DHT22;3699;51.462;6.696;2023-02-01T12:06:44;8.70;99.90
7317;DHT22;3699;51.462;6.696;2023-02-01T12:09:27;8.50;99.90
7317;DHT22;3699;51.462;6.696;2023-02-01T12:12:04;8.50;99.90
7317;DHT22;3699;51.462;6.696;2023-02-01T12:14:43;8.50;99.90
7317;DHT22;3699;51.462;6.696;2023-02-01T12:17:40;8.40;99.90
7317;DHT22;3699;51.462;6.696;2023-02-01T12:23:33;8.40;99.90
7317;DHT22;3699;51.462;6.696;2023-02-01T12:26:46;8.40;99.90
7317;DHT22;3699;51.462;6.696;2023-02-01T12:29:25;8.40;99.90
7317;DHT22;3699;51.462;6.696;2023-02-01T12:32:04;8.40;99.90
7317;DHT22;3699;51.462;6.696;2023-02-01T12:34:51;8.40;99.90
7317;DHT22;3699;51.462;6.696;2023-02-01T12:37:31;8.40;99.90
7317;DHT22;3699;51.462;6.696;2023-02-01T12:40:18;8.50;99.90
7317;DHT22;3699;51.462;6.696;2023-02-01T12:42:59;8.50;99.90
7317;DHT22;3699;51.462;6.696;2023-02-01T12:45:32;8.50;99.90
7317;DHT22;3699;51.462;6.696;2023-02-01T12:48:03;8.50;99.90
7317;DHT22;3699;51.462;6.696;2023-02-01T12:50:40;8.60;99.90
7317;DHT22;3699;51.462;6.696;2023-02-01T12:53:15;8.60;99.90
7317;DHT22;3699;51.462;6.696;2023-02-01T12:55:49;8.70;99.90
7317;DHT22;3699;51.462;6.696;2023-02-01T12:58:22;8.70;99.90
7317;DHT22;3699;51.462;6.696;2023-02-01T13:00:55;8.80;99.90
7317;DHT22;3699;51.462;6.696;2023-02-01T13:03:35;8.80;99.90
7317;DHT22;3699;51.462;6.696;2023-02-01T13:06:07;8.80;99.90
7317;DHT22;3699;51.462;6.696;2023-02-01T13:08:40;8.70;99.90
7317;DHT22;3699;51.462;6.696;2023-02-01T13:11:11;8.90;99.90
7317;DHT22;3699;51.462;6.696;2023-02-01T13:13:48;8.70;99.90
7317;DHT22;3699;51.462;6.696;2023-02-01T13:16:23;8.70;99.90
7317;DHT22;3699;51.462;6.696;2023-02-01T13:19:03;8.70;99.90
7317;DHT22;3699;51.462;6.696;2023-02-01T13:21:34;8.70;99.90
7317;DHT22;3699;51.462;6.696;2023-02-01T13:24:01;8.70;99.90
7317;DHT22;3699;51.462;6.696;2023-02-01T13:26:28;8.70;99.90
7317;DHT22;3699;51.462;6.696;2023-02-01T13:28:59;8.70;99.90
7317;DHT22;3699;51.462;6.696;2023-02-01T13:32:03;8.70;99.90
7317;DHT22;3699;51.462;6.696;2023-02-01T13:37:54;8.80;99.90
7317;DHT22;3699;51.462;6.696;2023-02-01T13:40:36;8.80;99.90
7317;DHT22;3699;51.462;6.696;2023-02-01T13:43:07;8.90;99.90
7317;DHT22;3699;51.462;6.696;2023-02-01T13:45:44;8.90;99.90
7317;DHT22;3699;51.462;6.696;2023-02-01T13:48:19;8.90;99.90
7317;DHT22;3699;51.462;6.696;2023-02-01T13:50:54;9.10;99.90
7317;DHT22;3699;51.462;6.696;2023-02-01T13:53:26;9.00;99.90
7317;DHT22;3699;51.462;6.696;2023-02-01T13:55:59;9.00;99.90
7317;DHT22;3699;51.462;6.696;2023-02-01T13:58:32;9.00;99.90
7317;DHT22;3699;51.462;6.696;2023-02-01T14:04:47;9.20;99.90
7317;DHT22;3699;51.462;6.696;2023-02-01T14:07:19;9.20;99.90
7317;DHT22;3699;51.462;6.696;2023-02-01T14:09:46;9.10;99.90
7317;DHT22;3699;51.462;6.696;2023-02-01T14:12:42;9.10;99.90
7317;DHT22;3699;51.462;6.696;2023-02-01T14:15:27;9.10;99.90
7317;DHT22;3699;51.462;6.696;2023-02-01T14:17:54;9.10;99.90
7317;DHT22;3699;51.462;6.696;2023-02-01T14:20:40;9.10;99.90
7317;DHT22;3699;51.462;6.696;2023-02-01T14:23:13;9.10;99.90
7317;DHT22;3699;51.462;6.696;2023-02-01T14:25:41;9.10;99.90
7317;DHT22;3699;51.462;6.696;2023-02-01T14:28:19;9.10;99.90
7317;DHT22;3699;51.462;6.696;2023-02-01T14:30:48;9.20;99.90
7317;DHT22;3699;51.462;6.696;2023-02-01T14:33:22;9.20;99.90
7317;DHT22;3699;51.462;6.696;2023-02-01T14:36:04;9.20;99.90
7317;DHT22;3699;51.462;6.696;2023-02-01T14:38:32;9.20;99.90
7317;DHT22;3699;51.462;6.696;2023-02-01T14:41:27;9.20;99.90
7317;DHT22;3699;51.462;6.696;2023-02-01T14:44:24;9.20;99.90
7317;DHT22;3699;51.462;6.696;2023-02-01T14:47:25;9.20;99.90
7317;DHT22;3699;51.462;6.696;2023-02-01T14:49:57;9.20;99.90
7317;DHT22;3699;51.462;6.696;2023-02-01T14:52:32;9.10;99.90
7317;DHT22;3699;51.462;6.696;2023-02-01T14:55:03;9.10;99.90
7317;DHT22;3699;51.462;6.696;2023-02-01T14:57:34;9.10;99.90
7317;DHT22;3699;51.462;6.696;2023-02-01T15:00:08;9.10;99.90
7317;DHT22;3699;51.462;6.696;2023-02-01T15:02:41;9.10;99.90
7317;DHT22;3699;51.462;6.696;2023-02-01T15:05:29;9.10;99.90
7317;DHT22;3699;51.462;6.696;2023-02-01T15:08:03;9.10;99.90
7317;DHT22;3699;51.462;6.696;2023-02-01T15:10:33;9.10;99.90
7317;DHT22;3699;51.462;6.696;2023-02-01T15:13:05;9.10;99.90
7317;DHT22;3699;51.462;6.696;2023-02-01T15:15:32;9.10;99.90
7317;DHT22;3699;51.462;6.696;2023-02-01T15:18:01;9.10;99.90
7317;DHT22;3699;51.462;6.696;2023-02-01T15:20:29;9.20;99.90
7317;DHT22;3699;51.462;6.696;2023-02-01T15:23:20;9.10;99.90
7317;DHT22;3699;51.462;6.696;2023-02-01T15:25:46;9.10;99.90
7317;DHT22;3699;51.462;6.696;2023-02-01T15:28:14;9.10;99.90
7317;DHT22;3699;51.462;6.696;2023-02-01T15:30:52;9.10;99.90
7317;DHT22;3699;51.462;6.696;2023-02-01T15:33:19;9.10;99.90
7317;DHT22;3699;51.462;6.696;2023-02-01T15:35:48;9.10;99.90
7317;DHT22;3699;51.462;6.696;2023-02-01T15:38:32;9.10;99.90
7317;DHT22;3699;51.462;6.696;2023-02-01T15:41:01;9.00;99.90
7317;DHT22;3699;51.462;6.696;2023-02-01T15:43:31;9.00;99.90
7317;DHT22;3699;51.462;6.696;2023-02-01T15:46:00;9.00;99.90
7317;DHT22;3699;51.462;6.696;2023-02-01T15:48:32;9.00;99.90
7317;DHT22;3699;51.462;6.696;2023-02-01T15:51:01;9.00;99.90
7317;DHT22;3699;51.462;6.696;2023-02-01T15:53:30;9.00;99.90
7317;DHT22;3699;51.462;6.696;2023-02-01T15:56:00;9.00;99.90
7317;DHT22;3699;51.462;6.696;2023-02-01T15:58:29;9.00;99.90
7317;DHT22;3699;51.462;6.696;2023-02-01T16:00:59;8.90;99.90
7317;DHT22;3699;51.462;6.696;2023-02-01T16:03:36;8.90;99.90
7317;DHT22;3699;51.462;6.696;2023-02-01T16:06:05;8.90;99.90
7317;DHT22;3699;51.462;6.696;2023-02-01T16:08:34;8.90;99.90
7317;DHT22;3699;51.462;6.696;2023-02-01T16:11:20;8.90;99.90
7317;DHT22;3699;51.462;6.696;2023-02-01T16:13:47;8.80;99.90
7317;DHT22;3699;51.462;6.696;2023-02-01T16:16:14;8.90;99.90
7317;DHT22;3699;51.462;6.696;2023-02-01T16:18:41;8.80;99.90
7317;DHT22;3699;51.462;6.696;2023-02-01T16:21:08;8.80;99.90
7317;DHT22;3699;51.462;6.696;2023-02-01T16:23:36;8.80;99.90
7317;DHT22;3699;51.462;6.696;2023-02-01T16:26:04;8.80;99.90
7317;DHT22;3699;51.462;6.696;2023-02-01T16:28:31;8.70;99.90
7317;DHT22;3699;51.462;6.696;2023-02-01T16:30:58;8.70;99.90
7317;DHT22;3699;51.462;6.696;2023-02-01T16:33:25;8.70;99.90
7317;DHT22;3699;51.462;6.696;2023-02-01T16:35:55;8.60;99.90
7317;DHT22;3699;51.462;6.696;2023-02-01T16:38:26;8.60;99.90
7317;DHT22;3699;51.462;6.696;2023-02-01T16:40:54;8.60;99.90
7317;DHT22;3699;51.462;6.696;2023-02-01T16:43:24;8.60;99.90
7317;DHT22;3699;51.462;6.696;2023-02-01T16:45:52;8.60;99.90
7317;DHT22;3699;51.462;6.696;2023-02-01T16:48:22;8.60;99.90
7317;DHT22;3699;51.462;6.696;2023-02-01T16:50:51;8.60;99.90
7317;DHT22;3699;51.462;6.696;2023-02-01T16:53:20;8.60;99.90
7317;DHT22;3699;51.462;6.696;2023-02-01T16:55:47;8.60;99.90
7317;DHT22;3699;51.462;6.696;2023-02-01T16:58:16;8.60;99.90
7317;DHT22;3699;51.462;6.696;2023-02-01T17:00:43;8.60;99.90
7317;DHT22;3699;51.462;6.696;2023-02-01T17:03:10;8.60;99.90
7317;DHT22;3699;51.462;6.696;2023-02-01T17:05:43;8.70;99.90